Grand Teton Natl Park, Wyoming
Current Conditions -  °F | °C
As of 5:15 AM on Friday 24 Oct 2014 (Local Time) from KJAC Reporting Station
Overcast Overcast  
Wind Chill: 45°   Ceiling: 9000
Heat Index: 48°   Visibility: 10mi
Dew Point: 30°   Wind: 7mph
Humidity: 50%   Direction: 190°S
Pressure: 30.18"   Gusts: NA
Location:  43.72°N, 110.8°W
Report Text: KJAC 241115Z AUTO 19006KT 10SM OVC090 09/M01 A3018 RMK AO1
Loading
Personal Weather Stations






























Interactive Weather Map
Tropical Storm Tracking
New forecast layout! Learn more

10-Day Weather Forecast

Advertisements
Track Severe Weather on mobile